sensor_id;sensor_type;location;lat;lon;timestamp;P1;durP1;ratioP1;P2;durP2;ratioP2
62071;SDS011;48031;48.542;13.232;2023-05-10T00:03:23;4.30;;;3.20;;
62071;SDS011;48031;48.542;13.232;2023-05-10T00:07:26;4.10;;;2.67;;
62071;SDS011;48031;48.542;13.232;2023-05-10T00:11:27;3.60;;;2.58;;
62071;SDS011;48031;48.542;13.232;2023-05-10T00:15:29;3.78;;;2.58;;
62071;SDS011;48031;48.542;13.232;2023-05-10T00:19:32;3.95;;;2.70;;
62071;SDS011;48031;48.542;13.232;2023-05-10T00:23:33;4.07;;;2.75;;
62071;SDS011;48031;48.542;13.232;2023-05-10T00:27:35;4.70;;;3.00;;
62071;SDS011;48031;48.542;13.232;2023-05-10T00:31:37;4.13;;;3.10;;
62071;SDS011;48031;48.542;13.232;2023-05-10T00:35:39;4.85;;;2.95;;
62071;SDS011;48031;48.542;13.232;2023-05-10T00:39:42;4.20;;;2.92;;
62071;SDS011;48031;48.542;13.232;2023-05-10T00:43:45;4.25;;;2.90;;
62071;SDS011;48031;48.542;13.232;2023-05-10T00:47:47;5.80;;;3.47;;
62071;SDS011;48031;48.542;13.232;2023-05-10T00:51:49;4.95;;;3.25;;
62071;SDS011;48031;48.542;13.232;2023-05-10T00:55:51;3.88;;;2.70;;
62071;SDS011;48031;48.542;13.232;2023-05-10T00:59:53;4.60;;;2.90;;
62071;SDS011;48031;48.542;13.232;2023-05-10T01:03:55;4.55;;;3.15;;
62071;SDS011;48031;48.542;13.232;2023-05-10T01:07:57;4.00;;;2.95;;
62071;SDS011;48031;48.542;13.232;2023-05-10T01:11:59;6.15;;;3.03;;
62071;SDS011;48031;48.542;13.232;2023-05-10T01:16:03;6.32;;;2.90;;
62071;SDS011;48031;48.542;13.232;2023-05-10T01:20:07;4.93;;;3.00;;
62071;SDS011;48031;48.542;13.232;2023-05-10T01:38:02;4.15;;;2.95;;
62071;SDS011;48031;48.542;13.232;2023-05-10T01:42:22;4.18;;;3.05;;
62071;SDS011;48031;48.542;13.232;2023-05-10T01:46:28;4.88;;;3.15;;
62071;SDS011;48031;48.542;13.232;2023-05-10T01:50:40;8.63;;;2.80;;
62071;SDS011;48031;48.542;13.232;2023-05-10T01:54:46;4.57;;;2.97;;
62071;SDS011;48031;48.542;13.232;2023-05-10T01:58:53;4.57;;;2.83;;
62071;SDS011;48031;48.542;13.232;2023-05-10T02:02:57;5.78;;;3.53;;
62071;SDS011;48031;48.542;13.232;2023-05-10T02:06:59;4.75;;;3.38;;
62071;SDS011;48031;48.542;13.232;2023-05-10T02:11:01;4.63;;;2.92;;
62071;SDS011;48031;48.542;13.232;2023-05-10T02:15:05;4.45;;;2.70;;
62071;SDS011;48031;48.542;13.232;2023-05-10T02:19:08;3.88;;;2.70;;
62071;SDS011;48031;48.542;13.232;2023-05-10T02:23:13;7.32;;;3.35;;
62071;SDS011;48031;48.542;13.232;2023-05-10T02:27:17;6.30;;;2.88;;
62071;SDS011;48031;48.542;13.232;2023-05-10T02:31:21;3.72;;;2.90;;
62071;SDS011;48031;48.542;13.232;2023-05-10T02:35:25;4.65;;;2.78;;
62071;SDS011;48031;48.542;13.232;2023-05-10T02:39:28;5.10;;;3.28;;
62071;SDS011;48031;48.542;13.232;2023-05-10T02:43:32;3.92;;;2.88;;
62071;SDS011;48031;48.542;13.232;2023-05-10T02:47:35;4.30;;;3.05;;
62071;SDS011;48031;48.542;13.232;2023-05-10T02:51:37;4.97;;;3.00;;
62071;SDS011;48031;48.542;13.232;2023-05-10T02:55:43;4.70;;;3.08;;
62071;SDS011;48031;48.542;13.232;2023-05-10T02:59:49;5.10;;;3.10;;
62071;SDS011;48031;48.542;13.232;2023-05-10T03:03:50;4.47;;;3.00;;
62071;SDS011;48031;48.542;13.232;2023-05-10T03:07:52;4.07;;;3.00;;
62071;SDS011;48031;48.542;13.232;2023-05-10T03:12:15;4.93;;;2.50;;
62071;SDS011;48031;48.542;13.232;2023-05-10T03:16:29;4.85;;;2.78;;
62071;SDS011;48031;48.542;13.232;2023-05-10T03:20:48;7.18;;;3.40;;
62071;SDS011;48031;48.542;13.232;2023-05-10T03:24:55;5.55;;;3.50;;
62071;SDS011;48031;48.542;13.232;2023-05-10T03:29:06;5.18;;;3.88;;
62071;SDS011;48031;48.542;13.232;2023-05-10T03:33:08;3.95;;;2.90;;
62071;SDS011;48031;48.542;13.232;2023-05-10T03:37:14;5.45;;;3.47;;
62071;SDS011;48031;48.542;13.232;2023-05-10T03:41:17;3.75;;;2.72;;
62071;SDS011;48031;48.542;13.232;2023-05-10T03:45:19;4.65;;;3.13;;
62071;SDS011;48031;48.542;13.232;2023-05-10T03:49:22;6.25;;;3.80;;
62071;SDS011;48031;48.542;13.232;2023-05-10T03:53:24;7.07;;;4.45;;
62071;SDS011;48031;48.542;13.232;2023-05-10T03:57:26;8.38;;;3.78;;
62071;SDS011;48031;48.542;13.232;2023-05-10T04:01:29;5.32;;;3.38;;
62071;SDS011;48031;48.542;13.232;2023-05-10T04:05:31;4.05;;;3.00;;
62071;SDS011;48031;48.542;13.232;2023-05-10T04:09:33;4.32;;;2.75;;
62071;SDS011;48031;48.542;13.232;2023-05-10T04:13:36;5.93;;;3.13;;
62071;SDS011;48031;48.542;13.232;2023-05-10T04:17:39;4.32;;;2.60;;
62071;SDS011;48031;48.542;13.232;2023-05-10T04:21:41;6.25;;;3.17;;
62071;SDS011;48031;48.542;13.232;2023-05-10T04:25:43;4.45;;;3.25;;
62071;SDS011;48031;48.542;13.232;2023-05-10T04:29:46;4.18;;;3.10;;
62071;SDS011;48031;48.542;13.232;2023-05-10T04:33:48;4.28;;;2.97;;
62071;SDS011;48031;48.542;13.232;2023-05-10T04:37:51;5.00;;;2.95;;
62071;SDS011;48031;48.542;13.232;2023-05-10T04:41:54;4.22;;;3.30;;
62071;SDS011;48031;48.542;13.232;2023-05-10T04:45:57;5.65;;;3.60;;
62071;SDS011;48031;48.542;13.232;2023-05-10T04:49:59;4.53;;;3.22;;
62071;SDS011;48031;48.542;13.232;2023-05-10T04:54:01;6.10;;;3.60;;
62071;SDS011;48031;48.542;13.232;2023-05-10T04:58:07;6.22;;;3.30;;
62071;SDS011;48031;48.542;13.232;2023-05-10T05:02:09;5.55;;;3.30;;
62071;SDS011;48031;48.542;13.232;2023-05-10T05:06:11;4.80;;;3.05;;
62071;SDS011;48031;48.542;13.232;2023-05-10T05:10:13;5.07;;;3.17;;
62071;SDS011;48031;48.542;13.232;2023-05-10T05:14:15;4.95;;;3.38;;
62071;SDS011;48031;48.542;13.232;2023-05-10T05:18:17;4.80;;;3.22;;
62071;SDS011;48031;48.542;13.232;2023-05-10T05:22:19;4.45;;;3.10;;
62071;SDS011;48031;48.542;13.232;2023-05-10T05:26:28;6.78;;;3.35;;
62071;SDS011;48031;48.542;13.232;2023-05-10T05:30:29;5.72;;;3.80;;
62071;SDS011;48031;48.542;13.232;2023-05-10T05:34:31;5.53;;;3.67;;
62071;SDS011;48031;48.542;13.232;2023-05-10T05:38:33;5.38;;;3.78;;
62071;SDS011;48031;48.542;13.232;2023-05-10T05:42:35;5.13;;;3.47;;
62071;SDS011;48031;48.542;13.232;2023-05-10T05:46:36;5.07;;;3.45;;
62071;SDS011;48031;48.542;13.232;2023-05-10T05:50:38;5.75;;;3.67;;
62071;SDS011;48031;48.542;13.232;2023-05-10T05:54:40;6.57;;;4.00;;
62071;SDS011;48031;48.542;13.232;2023-05-10T05:58:42;7.05;;;4.28;;
62071;SDS011;48031;48.542;13.232;2023-05-10T06:02:43;6.45;;;4.35;;
62071;SDS011;48031;48.542;13.232;2023-05-10T06:06:45;5.05;;;3.90;;
62071;SDS011;48031;48.542;13.232;2023-05-10T06:10:47;7.70;;;4.20;;
62071;SDS011;48031;48.542;13.232;2023-05-10T06:14:49;7.07;;;3.97;;
62071;SDS011;48031;48.542;13.232;2023-05-10T06:18:51;5.00;;;3.20;;
62071;SDS011;48031;48.542;13.232;2023-05-10T06:22:53;6.03;;;3.83;;
62071;SDS011;48031;48.542;13.232;2023-05-10T06:26:54;7.18;;;5.03;;
62071;SDS011;48031;48.542;13.232;2023-05-10T06:30:56;10.88;;;5.50;;
62071;SDS011;48031;48.542;13.232;2023-05-10T06:34:58;6.78;;;4.63;;
62071;SDS011;48031;48.542;13.232;2023-05-10T06:39:00;8.18;;;5.65;;
62071;SDS011;48031;48.542;13.232;2023-05-10T06:43:01;7.10;;;4.68;;
62071;SDS011;48031;48.542;13.232;2023-05-10T06:47:03;6.50;;;4.90;;
62071;SDS011;48031;48.542;13.232;2023-05-10T06:51:05;5.85;;;4.10;;
62071;SDS011;48031;48.542;13.232;2023-05-10T06:55:07;6.35;;;3.95;;
62071;SDS011;48031;48.542;13.232;2023-05-10T06:59:10;7.78;;;4.45;;
62071;SDS011;48031;48.542;13.232;2023-05-10T07:03:12;8.07;;;4.93;;
62071;SDS011;48031;48.542;13.232;2023-05-10T07:07:14;7.10;;;4.55;;
62071;SDS011;48031;48.542;13.232;2023-05-10T07:11:16;7.10;;;4.70;;
62071;SDS011;48031;48.542;13.232;2023-05-10T07:15:17;6.28;;;4.45;;
62071;SDS011;48031;48.542;13.232;2023-05-10T07:19:20;7.22;;;4.75;;
62071;SDS011;48031;48.542;13.232;2023-05-10T07:23:21;9.02;;;5.43;;
62071;SDS011;48031;48.542;13.232;2023-05-10T07:27:23;8.02;;;4.15;;
62071;SDS011;48031;48.542;13.232;2023-05-10T07:31:25;5.88;;;4.10;;
62071;SDS011;48031;48.542;13.232;2023-05-10T07:35:27;9.45;;;5.00;;
62071;SDS011;48031;48.542;13.232;2023-05-10T07:39:28;7.50;;;3.90;;
62071;SDS011;48031;48.542;13.232;2023-05-10T07:43:30;4.97;;;3.95;;
62071;SDS011;48031;48.542;13.232;2023-05-10T07:47:32;4.53;;;3.55;;
62071;SDS011;48031;48.542;13.232;2023-05-10T07:51:34;5.47;;;3.72;;
62071;SDS011;48031;48.542;13.232;2023-05-10T07:55:35;6.72;;;4.07;;
62071;SDS011;48031;48.542;13.232;2023-05-10T07:59:37;7.38;;;3.92;;
62071;SDS011;48031;48.542;13.232;2023-05-10T08:03:39;4.05;;;3.10;;
62071;SDS011;48031;48.542;13.232;2023-05-10T08:07:41;3.80;;;2.75;;
62071;SDS011;48031;48.542;13.232;2023-05-10T08:11:43;4.60;;;3.53;;
62071;SDS011;48031;48.542;13.232;2023-05-10T08:15:45;6.78;;;3.58;;
62071;SDS011;48031;48.542;13.232;2023-05-10T08:19:48;6.05;;;3.55;;
62071;SDS011;48031;48.542;13.232;2023-05-10T08:23:49;5.03;;;3.65;;
62071;SDS011;48031;48.542;13.232;2023-05-10T08:27:51;4.50;;;3.22;;
62071;SDS011;48031;48.542;13.232;2023-05-10T08:31:53;7.97;;;4.13;;
62071;SDS011;48031;48.542;13.232;2023-05-10T08:35:55;6.43;;;4.43;;
62071;SDS011;48031;48.542;13.232;2023-05-10T08:39:56;5.15;;;3.75;;
62071;SDS011;48031;48.542;13.232;2023-05-10T08:43:58;10.23;;;3.80;;
62071;SDS011;48031;48.542;13.232;2023-05-10T08:48:04;5.25;;;3.65;;
62071;SDS011;48031;48.542;13.232;2023-05-10T08:52:07;3.97;;;3.58;;
62071;SDS011;48031;48.542;13.232;2023-05-10T08:56:09;7.25;;;4.38;;
62071;SDS011;48031;48.542;13.232;2023-05-10T09:00:11;3.75;;;2.85;;
62071;SDS011;48031;48.542;13.232;2023-05-10T09:04:14;4.38;;;3.17;;
62071;SDS011;48031;48.542;13.232;2023-05-10T09:08:16;3.50;;;2.63;;
62071;SDS011;48031;48.542;13.232;2023-05-10T09:12:18;3.85;;;2.80;;
62071;SDS011;48031;48.542;13.232;2023-05-10T09:16:20;5.00;;;3.40;;
62071;SDS011;48031;48.542;13.232;2023-05-10T09:20:23;4.10;;;3.17;;
62071;SDS011;48031;48.542;13.232;2023-05-10T09:24:25;5.85;;;2.90;;
62071;SDS011;48031;48.542;13.232;2023-05-10T09:28:31;6.18;;;3.10;;
62071;SDS011;48031;48.542;13.232;2023-05-10T09:32:37;2.97;;;2.60;;
62071;SDS011;48031;48.542;13.232;2023-05-10T09:40:55;2.95;;;2.30;;
62071;SDS011;48031;48.542;13.232;2023-05-10T09:45:05;3.28;;;2.40;;
62071;SDS011;48031;48.542;13.232;2023-05-10T09:49:08;3.38;;;2.42;;
62071;SDS011;48031;48.542;13.232;2023-05-10T09:53:09;2.67;;;2.20;;
62071;SDS011;48031;48.542;13.232;2023-05-10T09:57:22;4.10;;;2.53;;
62071;SDS011;48031;48.542;13.232;2023-05-10T10:01:25;3.90;;;2.88;;
62071;SDS011;48031;48.542;13.232;2023-05-10T10:05:31;2.75;;;2.40;;
62071;SDS011;48031;48.542;13.232;2023-05-10T10:13:36;4.55;;;3.75;;
62071;SDS011;48031;48.542;13.232;2023-05-10T10:17:38;4.68;;;3.25;;
62071;SDS011;48031;48.542;13.232;2023-05-10T10:21:41;3.40;;;2.45;;
62071;SDS011;48031;48.542;13.232;2023-05-10T10:25:43;4.60;;;3.33;;
62071;SDS011;48031;48.542;13.232;2023-05-10T10:29:49;5.30;;;3.83;;
62071;SDS011;48031;48.542;13.232;2023-05-10T10:34:06;4.03;;;2.72;;
62071;SDS011;48031;48.542;13.232;2023-05-10T10:38:09;3.42;;;2.50;;
62071;SDS011;48031;48.542;13.232;2023-05-10T10:42:10;4.88;;;3.60;;
62071;SDS011;48031;48.542;13.232;2023-05-10T10:46:13;4.82;;;3.67;;
62071;SDS011;48031;48.542;13.232;2023-05-10T10:50:15;3.80;;;3.00;;
62071;SDS011;48031;48.542;13.232;2023-05-10T10:54:18;3.85;;;2.95;;
62071;SDS011;48031;48.542;13.232;2023-05-10T10:58:29;2.80;;;2.47;;
62071;SDS011;48031;48.542;13.232;2023-05-10T11:02:44;4.97;;;3.40;;
62071;SDS011;48031;48.542;13.232;2023-05-10T11:06:49;4.03;;;2.80;;
62071;SDS011;48031;48.542;13.232;2023-05-10T11:15:02;4.55;;;3.35;;
62071;SDS011;48031;48.542;13.232;2023-05-10T11:19:07;2.92;;;2.63;;
62071;SDS011;48031;48.542;13.232;2023-05-10T11:23:12;2.83;;;2.38;;
62071;SDS011;48031;48.542;13.232;2023-05-10T11:27:17;2.67;;;2.42;;
62071;SDS011;48031;48.542;13.232;2023-05-10T11:31:19;5.47;;;3.60;;
62071;SDS011;48031;48.542;13.232;2023-05-10T11:35:21;5.88;;;3.22;;
62071;SDS011;48031;48.542;13.232;2023-05-10T11:39:31;4.10;;;2.92;;
62071;SDS011;48031;48.542;13.232;2023-05-10T11:43:33;3.28;;;2.63;;
62071;SDS011;48031;48.542;13.232;2023-05-10T11:47:35;3.13;;;2.70;;
62071;SDS011;48031;48.542;13.232;2023-05-10T11:51:38;3.13;;;2.50;;
62071;SDS011;48031;48.542;13.232;2023-05-10T11:55:40;2.63;;;2.28;;
62071;SDS011;48031;48.542;13.232;2023-05-10T11:59:42;3.05;;;2.70;;
62071;SDS011;48031;48.542;13.232;2023-05-10T12:03:44;3.13;;;2.55;;
62071;SDS011;48031;48.542;13.232;2023-05-10T12:07:46;2.30;;;2.10;;
62071;SDS011;48031;48.542;13.232;2023-05-10T12:11:48;4.25;;;2.30;;
62071;SDS011;48031;48.542;13.232;2023-05-10T12:15:50;2.58;;;2.38;;
62071;SDS011;48031;48.542;13.232;2023-05-10T12:19:51;2.05;;;1.88;;
62071;SDS011;48031;48.542;13.232;2023-05-10T12:23:54;2.45;;;2.25;;
62071;SDS011;48031;48.542;13.232;2023-05-10T12:28:00;2.15;;;1.95;;
62071;SDS011;48031;48.542;13.232;2023-05-10T12:32:05;2.30;;;2.00;;
62071;SDS011;48031;48.542;13.232;2023-05-10T12:36:08;2.53;;;2.10;;
62071;SDS011;48031;48.542;13.232;2023-05-10T12:40:10;2.47;;;2.22;;
62071;SDS011;48031;48.542;13.232;2023-05-10T12:44:13;2.83;;;2.35;;
62071;SDS011;48031;48.542;13.232;2023-05-10T12:48:15;3.78;;;1.95;;
62071;SDS011;48031;48.542;13.232;2023-05-10T12:52:16;2.47;;;2.15;;
62071;SDS011;48031;48.542;13.232;2023-05-10T12:56:18;3.53;;;2.22;;
62071;SDS011;48031;48.542;13.232;2023-05-10T13:00:20;2.47;;;2.17;;
62071;SDS011;48031;48.542;13.232;2023-05-10T13:04:22;2.88;;;2.45;;
62071;SDS011;48031;48.542;13.232;2023-05-10T13:08:24;3.08;;;2.30;;
62071;SDS011;48031;48.542;13.232;2023-05-10T13:12:26;2.17;;;1.98;;
62071;SDS011;48031;48.542;13.232;2023-05-10T13:16:28;2.70;;;1.92;;
62071;SDS011;48031;48.542;13.232;2023-05-10T13:20:29;2.88;;;2.58;;
62071;SDS011;48031;48.542;13.232;2023-05-10T13:24:31;2.40;;;2.10;;
62071;SDS011;48031;48.542;13.232;2023-05-10T13:28:33;1.73;;;1.63;;
62071;SDS011;48031;48.542;13.232;2023-05-10T13:32:35;2.08;;;1.73;;
62071;SDS011;48031;48.542;13.232;2023-05-10T13:36:37;2.05;;;1.85;;
62071;SDS011;48031;48.542;13.232;2023-05-10T13:40:39;2.03;;;1.83;;
62071;SDS011;48031;48.542;13.232;2023-05-10T13:44:41;3.22;;;2.53;;
62071;SDS011;48031;48.542;13.232;2023-05-10T13:48:43;2.28;;;2.08;;
62071;SDS011;48031;48.542;13.232;2023-05-10T13:52:44;2.25;;;1.88;;
62071;SDS011;48031;48.542;13.232;2023-05-10T13:56:46;4.40;;;2.22;;
62071;SDS011;48031;48.542;13.232;2023-05-10T14:00:49;2.50;;;1.92;;
62071;SDS011;48031;48.542;13.232;2023-05-10T14:04:51;1.75;;;1.65;;
62071;SDS011;48031;48.542;13.232;2023-05-10T14:08:53;1.83;;;1.60;;
62071;SDS011;48031;48.542;13.232;2023-05-10T14:12:55;2.72;;;2.20;;
62071;SDS011;48031;48.542;13.232;2023-05-10T14:16:57;2.40;;;2.10;;
62071;SDS011;48031;48.542;13.232;2023-05-10T14:20:58;2.60;;;2.40;;
62071;SDS011;48031;48.542;13.232;2023-05-10T14:25:00;2.58;;;2.35;;
62071;SDS011;48031;48.542;13.232;2023-05-10T14:29:02;2.38;;;2.17;;
62071;SDS011;48031;48.542;13.232;2023-05-10T14:33:04;2.50;;;2.13;;
62071;SDS011;48031;48.542;13.232;2023-05-10T14:37:09;2.58;;;2.25;;
62071;SDS011;48031;48.542;13.232;2023-05-10T14:41:12;3.60;;;2.25;;
62071;SDS011;48031;48.542;13.232;2023-05-10T14:45:16;2.78;;;2.33;;
62071;SDS011;48031;48.542;13.232;2023-05-10T14:49:18;2.17;;;1.48;;
62071;SDS011;48031;48.542;13.232;2023-05-10T14:53:20;2.55;;;2.33;;
62071;SDS011;48031;48.542;13.232;2023-05-10T14:57:22;2.35;;;1.70;;
62071;SDS011;48031;48.542;13.232;2023-05-10T15:01:23;3.20;;;2.17;;
62071;SDS011;48031;48.542;13.232;2023-05-10T15:05:26;2.38;;;2.00;;
62071;SDS011;48031;48.542;13.232;2023-05-10T15:09:28;2.40;;;2.00;;
62071;SDS011;48031;48.542;13.232;2023-05-10T15:13:30;3.03;;;2.10;;
62071;SDS011;48031;48.542;13.232;2023-05-10T15:17:32;2.00;;;1.70;;
62071;SDS011;48031;48.542;13.232;2023-05-10T15:21:34;2.17;;;1.75;;
62071;SDS011;48031;48.542;13.232;2023-05-10T15:25:40;3.33;;;1.98;;
62071;SDS011;48031;48.542;13.232;2023-05-10T15:29:42;2.45;;;1.85;;
62071;SDS011;48031;48.542;13.232;2023-05-10T15:33:44;2.25;;;1.52;;
62071;SDS011;48031;48.542;13.232;2023-05-10T15:37:46;1.73;;;1.60;;
62071;SDS011;48031;48.542;13.232;2023-05-10T15:41:49;2.75;;;2.22;;
62071;SDS011;48031;48.542;13.232;2023-05-10T15:45:52;2.67;;;2.03;;
62071;SDS011;48031;48.542;13.232;2023-05-10T15:49:54;1.80;;;1.70;;
62071;SDS011;48031;48.542;13.232;2023-05-10T15:53:56;5.35;;;1.77;;
62071;SDS011;48031;48.542;13.232;2023-05-10T15:58:08;1.95;;;1.58;;
62071;SDS011;48031;48.542;13.232;2023-05-10T16:02:11;2.30;;;1.65;;
62071;SDS011;48031;48.542;13.232;2023-05-10T16:06:13;2.38;;;1.90;;
62071;SDS011;48031;48.542;13.232;2023-05-10T16:10:14;3.55;;;2.17;;
62071;SDS011;48031;48.542;13.232;2023-05-10T16:14:17;3.13;;;2.17;;
62071;SDS011;48031;48.542;13.232;2023-05-10T16:18:21;2.67;;;1.92;;
62071;SDS011;48031;48.542;13.232;2023-05-10T16:22:24;2.17;;;1.80;;
62071;SDS011;48031;48.542;13.232;2023-05-10T16:26:29;3.97;;;2.25;;
62071;SDS011;48031;48.542;13.232;2023-05-10T16:30:31;4.70;;;2.88;;
62071;SDS011;48031;48.542;13.232;2023-05-10T16:34:32;3.22;;;1.70;;
62071;SDS011;48031;48.542;13.232;2023-05-10T16:38:34;2.63;;;2.00;;
62071;SDS011;48031;48.542;13.232;2023-05-10T16:42:36;1.92;;;1.50;;
62071;SDS011;48031;48.542;13.232;2023-05-10T16:46:38;1.85;;;1.70;;
62071;SDS011;48031;48.542;13.232;2023-05-10T16:50:43;1.70;;;1.60;;
62071;SDS011;48031;48.542;13.232;2023-05-10T16:54:45;2.58;;;1.80;;
62071;SDS011;48031;48.542;13.232;2023-05-10T16:58:47;3.90;;;2.40;;
62071;SDS011;48031;48.542;13.232;2023-05-10T17:02:51;2.50;;;2.30;;
62071;SDS011;48031;48.542;13.232;2023-05-10T17:06:55;2.97;;;2.30;;
62071;SDS011;48031;48.542;13.232;2023-05-10T17:10:59;3.83;;;2.90;;
62071;SDS011;48031;48.542;13.232;2023-05-10T17:15:02;4.20;;;3.40;;
62071;SDS011;48031;48.542;13.232;2023-05-10T17:19:05;6.47;;;3.78;;
62071;SDS011;48031;48.542;13.232;2023-05-10T17:23:07;2.60;;;2.33;;
62071;SDS011;48031;48.542;13.232;2023-05-10T17:27:09;5.03;;;3.28;;
62071;SDS011;48031;48.542;13.232;2023-05-10T17:31:11;4.28;;;3.25;;
62071;SDS011;48031;48.542;13.232;2023-05-10T17:35:12;2.95;;;2.40;;
62071;SDS011;48031;48.542;13.232;2023-05-10T17:39:15;1.60;;;1.50;;
62071;SDS011;48031;48.542;13.232;2023-05-10T17:43:17;1.80;;;1.30;;
62071;SDS011;48031;48.542;13.232;2023-05-10T17:47:18;1.40;;;1.30;;
62071;SDS011;48031;48.542;13.232;2023-05-10T17:51:21;1.27;;;1.17;;
62071;SDS011;48031;48.542;13.232;2023-05-10T17:55:22;3.53;;;1.15;;
62071;SDS011;48031;48.542;13.232;2023-05-10T17:59:24;1.65;;;1.30;;
62071;SDS011;48031;48.542;13.232;2023-05-10T18:03:26;1.15;;;0.93;;
62071;SDS011;48031;48.542;13.232;2023-05-10T18:07:28;2.08;;;0.93;;
62071;SDS011;48031;48.542;13.232;2023-05-10T18:11:33;0.73;;;0.70;;
62071;SDS011;48031;48.542;13.232;2023-05-10T18:15:42;1.20;;;0.85;;
62071;SDS011;48031;48.542;13.232;2023-05-10T18:19:44;1.20;;;1.10;;
62071;SDS011;48031;48.542;13.232;2023-05-10T18:23:46;4.13;;;0.80;;
62071;SDS011;48031;48.542;13.232;2023-05-10T18:27:48;1.50;;;1.00;;
62071;SDS011;48031;48.542;13.232;2023-05-10T18:31:49;1.52;;;1.30;;
62071;SDS011;48031;48.542;13.232;2023-05-10T18:35:51;1.38;;;1.10;;
62071;SDS011;48031;48.542;13.232;2023-05-10T18:39:53;2.17;;;1.20;;
62071;SDS011;48031;48.542;13.232;2023-05-10T18:43:55;1.00;;;1.00;;
62071;SDS011;48031;48.542;13.232;2023-05-10T18:47:56;1.20;;;1.10;;
62071;SDS011;48031;48.542;13.232;2023-05-10T18:51:58;0.85;;;0.80;;
62071;SDS011;48031;48.542;13.232;2023-05-10T18:56:00;0.82;;;0.82;;
62071;SDS011;48031;48.542;13.232;2023-05-10T19:00:02;1.25;;;1.15;;
62071;SDS011;48031;48.542;13.232;2023-05-10T19:04:05;4.40;;;0.88;;
62071;SDS011;48031;48.542;13.232;2023-05-10T19:08:08;1.15;;;1.00;;
62071;SDS011;48031;48.542;13.232;2023-05-10T19:12:10;1.38;;;1.20;;
62071;SDS011;48031;48.542;13.232;2023-05-10T19:16:12;3.72;;;1.40;;
62071;SDS011;48031;48.542;13.232;2023-05-10T19:20:16;2.22;;;1.27;;
62071;SDS011;48031;48.542;13.232;2023-05-10T19:24:18;1.33;;;1.17;;
62071;SDS011;48031;48.542;13.232;2023-05-10T19:28:23;1.40;;;1.30;;
62071;SDS011;48031;48.542;13.232;2023-05-10T19:32:25;1.10;;;1.10;;
62071;SDS011;48031;48.542;13.232;2023-05-10T19:36:27;2.63;;;1.52;;
62071;SDS011;48031;48.542;13.232;2023-05-10T19:40:29;1.48;;;1.38;;
62071;SDS011;48031;48.542;13.232;2023-05-10T19:44:31;1.30;;;1.20;;
62071;SDS011;48031;48.542;13.232;2023-05-10T19:48:33;1.38;;;1.25;;
62071;SDS011;48031;48.542;13.232;2023-05-10T19:52:35;1.60;;;1.50;;
62071;SDS011;48031;48.542;13.232;2023-05-10T19:56:36;1.67;;;1.50;;
62071;SDS011;48031;48.542;13.232;2023-05-10T20:00:38;1.83;;;1.63;;
62071;SDS011;48031;48.542;13.232;2023-05-10T20:04:40;1.65;;;1.55;;
62071;SDS011;48031;48.542;13.232;2023-05-10T20:08:41;1.92;;;1.60;;
62071;SDS011;48031;48.542;13.232;2023-05-10T20:12:45;2.13;;;1.70;;
62071;SDS011;48031;48.542;13.232;2023-05-10T20:16:51;1.60;;;1.48;;
62071;SDS011;48031;48.542;13.232;2023-05-10T20:20:53;1.75;;;1.38;;
62071;SDS011;48031;48.542;13.232;2023-05-10T20:24:56;1.48;;;1.30;;
62071;SDS011;48031;48.542;13.232;2023-05-10T20:28:58;1.58;;;1.40;;
62071;SDS011;48031;48.542;13.232;2023-05-10T20:33:00;1.77;;;1.60;;
62071;SDS011;48031;48.542;13.232;2023-05-10T20:37:04;1.50;;;1.30;;
62071;SDS011;48031;48.542;13.232;2023-05-10T20:41:06;1.70;;;1.58;;
62071;SDS011;48031;48.542;13.232;2023-05-10T20:45:08;1.60;;;1.50;;
62071;SDS011;48031;48.542;13.232;2023-05-10T20:49:10;2.83;;;1.58;;
62071;SDS011;48031;48.542;13.232;2023-05-10T20:53:12;2.20;;;1.70;;
62071;SDS011;48031;48.542;13.232;2023-05-10T20:57:15;2.55;;;2.13;;
62071;SDS011;48031;48.542;13.232;2023-05-10T21:01:16;2.88;;;1.85;;
62071;SDS011;48031;48.542;13.232;2023-05-10T21:05:18;6.30;;;2.00;;
62071;SDS011;48031;48.542;13.232;2023-05-10T21:09:20;2.20;;;1.73;;
62071;SDS011;48031;48.542;13.232;2023-05-10T21:13:22;2.35;;;1.85;;
62071;SDS011;48031;48.542;13.232;2023-05-10T21:17:23;3.42;;;2.30;;
62071;SDS011;48031;48.542;13.232;2023-05-10T21:21:25;3.05;;;2.65;;
62071;SDS011;48031;48.542;13.232;2023-05-10T21:25:27;2.80;;;2.50;;
62071;SDS011;48031;48.542;13.232;2023-05-10T21:29:29;2.38;;;1.90;;
62071;SDS011;48031;48.542;13.232;2023-05-10T21:33:31;2.60;;;2.20;;
62071;SDS011;48031;48.542;13.232;2023-05-10T21:37:32;3.30;;;2.65;;
62071;SDS011;48031;48.542;13.232;2023-05-10T21:41:34;2.78;;;2.25;;
62071;SDS011;48031;48.542;13.232;2023-05-10T21:45:36;3.80;;;2.28;;
62071;SDS011;48031;48.542;13.232;2023-05-10T21:49:38;2.67;;;2.40;;
62071;SDS011;48031;48.542;13.232;2023-05-10T21:53:39;3.42;;;2.35;;
62071;SDS011;48031;48.542;13.232;2023-05-10T21:57:41;3.10;;;2.65;;
62071;SDS011;48031;48.542;13.232;2023-05-10T22:01:43;3.58;;;2.83;;
62071;SDS011;48031;48.542;13.232;2023-05-10T22:05:45;5.60;;;2.72;;
62071;SDS011;48031;48.542;13.232;2023-05-10T22:09:47;3.17;;;2.58;;
62071;SDS011;48031;48.542;13.232;2023-05-10T22:13:48;3.35;;;2.80;;
62071;SDS011;48031;48.542;13.232;2023-05-10T22:17:50;3.55;;;2.72;;
62071;SDS011;48031;48.542;13.232;2023-05-10T22:21:52;3.45;;;2.83;;
62071;SDS011;48031;48.542;13.232;2023-05-10T22:25:57;2.88;;;2.58;;
62071;SDS011;48031;48.542;13.232;2023-05-10T22:30:00;3.45;;;2.70;;
62071;SDS011;48031;48.542;13.232;2023-05-10T22:34:05;3.58;;;2.72;;
62071;SDS011;48031;48.542;13.232;2023-05-10T22:38:07;3.13;;;2.83;;
62071;SDS011;48031;48.542;13.232;2023-05-10T22:42:08;3.20;;;2.80;;
62071;SDS011;48031;48.542;13.232;2023-05-10T22:46:10;3.80;;;2.80;;
62071;SDS011;48031;48.542;13.232;2023-05-10T22:50:12;4.30;;;3.15;;
62071;SDS011;48031;48.542;13.232;2023-05-10T22:54:14;2.60;;;2.30;;
62071;SDS011;48031;48.542;13.232;2023-05-10T22:58:16;4.70;;;3.28;;
62071;SDS011;48031;48.542;13.232;2023-05-10T23:02:18;3.33;;;2.90;;
62071;SDS011;48031;48.542;13.232;2023-05-10T23:06:20;4.97;;;3.10;;
62071;SDS011;48031;48.542;13.232;2023-05-10T23:10:22;4.88;;;2.42;;
62071;SDS011;48031;48.542;13.232;2023-05-10T23:14:24;3.95;;;3.08;;
62071;SDS011;48031;48.542;13.232;2023-05-10T23:18:26;3.30;;;2.38;;
62071;SDS011;48031;48.542;13.232;2023-05-10T23:22:27;4.78;;;2.72;;
62071;SDS011;48031;48.542;13.232;2023-05-10T23:26:29;2.95;;;2.58;;
62071;SDS011;48031;48.542;13.232;2023-05-10T23:30:31;3.95;;;3.22;;
62071;SDS011;48031;48.542;13.232;2023-05-10T23:34:33;4.15;;;3.28;;
62071;SDS011;48031;48.542;13.232;2023-05-10T23:38:36;4.10;;;3.40;;
62071;SDS011;48031;48.542;13.232;2023-05-10T23:42:38;4.40;;;3.40;;
62071;SDS011;48031;48.542;13.232;2023-05-10T23:46:40;4.40;;;3.50;;
62071;SDS011;48031;48.542;13.232;2023-05-10T23:50:45;4.15;;;2.67;;
62071;SDS011;48031;48.542;13.232;2023-05-10T23:54:47;5.70;;;3.45;;
62071;SDS011;48031;48.542;13.232;2023-05-10T23:58:48;4.60;;;3.90;;
